sensor_id;sensor_type;location;lat;lon;timestamp;P1;durP1;ratioP1;P2;durP2;ratioP2
60919;SDS011;59039;52.108;19.942;2022-09-09T00:01:46;12.10;;;8.10;;
60919;SDS011;59039;52.108;19.942;2022-09-09T00:04:28;15.90;;;8.50;;
60919;SDS011;59039;52.108;19.942;2022-09-09T00:09:47;14.00;;;8.40;;
60919;SDS011;59039;52.108;19.942;2022-09-09T00:12:30;19.70;;;8.80;;
60919;SDS011;59039;52.108;19.942;2022-09-09T00:17:47;17.50;;;9.10;;
60919;SDS011;59039;52.108;19.942;2022-09-09T00:20:25;19.10;;;8.90;;
60919;SDS011;59039;52.108;19.942;2022-09-09T00:22:59;13.60;;;8.20;;
60919;SDS011;59039;52.108;19.942;2022-09-09T00:31:51;17.40;;;9.50;;
60919;SDS011;59039;52.108;19.942;2022-09-09T00:34:34;17.20;;;9.80;;
60919;SDS011;59039;52.108;19.942;2022-09-09T00:37:01;15.00;;;8.70;;
60919;SDS011;59039;52.108;19.942;2022-09-09T00:39:31;14.60;;;8.90;;
60919;SDS011;59039;52.108;19.942;2022-09-09T00:47:24;15.10;;;8.90;;
60919;SDS011;59039;52.108;19.942;2022-09-09T00:52:55;18.90;;;9.90;;
60919;SDS011;59039;52.108;19.942;2022-09-09T00:55:49;16.50;;;10.20;;
60919;SDS011;59039;52.108;19.942;2022-09-09T00:58:29;18.00;;;12.10;;
60919;SDS011;59039;52.108;19.942;2022-09-09T01:03:33;16.80;;;9.40;;
60919;SDS011;59039;52.108;19.942;2022-09-09T01:16:59;16.00;;;9.20;;
60919;SDS011;59039;52.108;19.942;2022-09-09T01:19:39;18.20;;;10.30;;
60919;SDS011;59039;52.108;19.942;2022-09-09T01:22:24;18.20;;;9.50;;
60919;SDS011;59039;52.108;19.942;2022-09-09T01:27:48;16.10;;;10.80;;
60919;SDS011;59039;52.108;19.942;2022-09-09T01:30:24;15.70;;;9.50;;
60919;SDS011;59039;52.108;19.942;2022-09-09T01:32:53;18.00;;;11.70;;
60919;SDS011;59039;52.108;19.942;2022-09-09T01:35:42;20.30;;;11.00;;
60919;SDS011;59039;52.108;19.942;2022-09-09T01:38:12;22.40;;;11.80;;
60919;SDS011;59039;52.108;19.942;2022-09-09T01:40:59;22.40;;;9.80;;
60919;SDS011;59039;52.108;19.942;2022-09-09T01:43:24;20.80;;;11.00;;
60919;SDS011;59039;52.108;19.942;2022-09-09T01:45:53;22.40;;;11.50;;
60919;SDS011;59039;52.108;19.942;2022-09-09T01:48:23;23.60;;;12.30;;
60919;SDS011;59039;52.108;19.942;2022-09-09T01:50:50;20.50;;;11.60;;
60919;SDS011;59039;52.108;19.942;2022-09-09T01:53:16;17.80;;;10.80;;
60919;SDS011;59039;52.108;19.942;2022-09-09T02:04:32;21.20;;;11.80;;
60919;SDS011;59039;52.108;19.942;2022-09-09T02:10:10;23.20;;;12.30;;
60919;SDS011;59039;52.108;19.942;2022-09-09T02:12:42;20.00;;;12.00;;
60919;SDS011;59039;52.108;19.942;2022-09-09T02:15:18;21.50;;;11.90;;
60919;SDS011;59039;52.108;19.942;2022-09-09T02:17:49;23.80;;;11.60;;
60919;SDS011;59039;52.108;19.942;2022-09-09T02:20:17;24.70;;;12.70;;
60919;SDS011;59039;52.108;19.942;2022-09-09T02:22:44;23.20;;;12.80;;
60919;SDS011;59039;52.108;19.942;2022-09-09T02:25:13;22.30;;;12.70;;
60919;SDS011;59039;52.108;19.942;2022-09-09T02:27:43;22.20;;;12.20;;
60919;SDS011;59039;52.108;19.942;2022-09-09T02:30:10;25.30;;;12.80;;
60919;SDS011;59039;52.108;19.942;2022-09-09T02:32:47;21.20;;;11.20;;
60919;SDS011;59039;52.108;19.942;2022-09-09T02:35:16;19.70;;;11.80;;
60919;SDS011;59039;52.108;19.942;2022-09-09T02:37:46;22.80;;;12.60;;
60919;SDS011;59039;52.108;19.942;2022-09-09T02:40:14;23.00;;;12.50;;
60919;SDS011;59039;52.108;19.942;2022-09-09T02:42:49;22.00;;;12.30;;
60919;SDS011;59039;52.108;19.942;2022-09-09T02:45:16;22.30;;;12.30;;
60919;SDS011;59039;52.108;19.942;2022-09-09T02:47:50;20.60;;;12.80;;
60919;SDS011;59039;52.108;19.942;2022-09-09T02:53:20;21.30;;;12.70;;
60919;SDS011;59039;52.108;19.942;2022-09-09T02:55:50;23.70;;;12.30;;
60919;SDS011;59039;52.108;19.942;2022-09-09T02:58:22;22.60;;;13.50;;
60919;SDS011;59039;52.108;19.942;2022-09-09T03:00:49;24.50;;;12.40;;
60919;SDS011;59039;52.108;19.942;2022-09-09T03:03:18;24.90;;;13.10;;
60919;SDS011;59039;52.108;19.942;2022-09-09T03:05:51;22.60;;;12.50;;
60919;SDS011;59039;52.108;19.942;2022-09-09T03:08:16;21.40;;;13.30;;
60919;SDS011;59039;52.108;19.942;2022-09-09T03:10:42;23.30;;;12.80;;
60919;SDS011;59039;52.108;19.942;2022-09-09T03:15:56;24.70;;;12.30;;
60919;SDS011;59039;52.108;19.942;2022-09-09T03:18:21;22.50;;;12.50;;
60919;SDS011;59039;52.108;19.942;2022-09-09T03:20:50;22.40;;;13.20;;
60919;SDS011;59039;52.108;19.942;2022-09-09T03:23:38;23.80;;;13.60;;
60919;SDS011;59039;52.108;19.942;2022-09-09T03:28:43;20.70;;;12.20;;
60919;SDS011;59039;52.108;19.942;2022-09-09T03:31:12;22.30;;;13.40;;
60919;SDS011;59039;52.108;19.942;2022-09-09T03:33:40;19.80;;;12.40;;
60919;SDS011;59039;52.108;19.942;2022-09-09T03:36:05;20.60;;;12.10;;
60919;SDS011;59039;52.108;19.942;2022-09-09T03:41:06;21.50;;;12.90;;
60919;SDS011;59039;52.108;19.942;2022-09-09T03:43:32;23.00;;;13.30;;
60919;SDS011;59039;52.108;19.942;2022-09-09T03:45:57;23.30;;;13.70;;
60919;SDS011;59039;52.108;19.942;2022-09-09T03:48:23;22.90;;;12.60;;
60919;SDS011;59039;52.108;19.942;2022-09-09T03:50:58;24.20;;;13.20;;
60919;SDS011;59039;52.108;19.942;2022-09-09T03:53:24;21.50;;;12.20;;
60919;SDS011;59039;52.108;19.942;2022-09-09T03:55:51;20.30;;;12.30;;
60919;SDS011;59039;52.108;19.942;2022-09-09T03:58:17;23.10;;;13.30;;
60919;SDS011;59039;52.108;19.942;2022-09-09T04:00:44;20.80;;;13.10;;
60919;SDS011;59039;52.108;19.942;2022-09-09T04:03:28;21.60;;;12.50;;
60919;SDS011;59039;52.108;19.942;2022-09-09T04:05:54;19.10;;;12.60;;
60919;SDS011;59039;52.108;19.942;2022-09-09T04:08:21;23.00;;;13.20;;
60919;SDS011;59039;52.108;19.942;2022-09-09T04:10:47;21.60;;;13.20;;
60919;SDS011;59039;52.108;19.942;2022-09-09T04:13:14;21.50;;;12.80;;
60919;SDS011;59039;52.108;19.942;2022-09-09T04:15:40;25.50;;;13.50;;
60919;SDS011;59039;52.108;19.942;2022-09-09T04:18:06;23.90;;;13.70;;
60919;SDS011;59039;52.108;19.942;2022-09-09T04:20:34;21.60;;;12.70;;
60919;SDS011;59039;52.108;19.942;2022-09-09T04:23:00;24.50;;;12.50;;
60919;SDS011;59039;52.108;19.942;2022-09-09T04:28:12;24.70;;;13.80;;
60919;SDS011;59039;52.108;19.942;2022-09-09T04:30:42;18.80;;;12.00;;
60919;SDS011;59039;52.108;19.942;2022-09-09T04:35:49;22.90;;;13.80;;
60919;SDS011;59039;52.108;19.942;2022-09-09T04:38:15;27.30;;;14.10;;
60919;SDS011;59039;52.108;19.942;2022-09-09T04:40:46;21.40;;;13.10;;
60919;SDS011;59039;52.108;19.942;2022-09-09T04:43:12;27.00;;;14.40;;
60919;SDS011;59039;52.108;19.942;2022-09-09T04:45:37;28.90;;;13.90;;
60919;SDS011;59039;52.108;19.942;2022-09-09T04:48:12;24.10;;;13.50;;
60919;SDS011;59039;52.108;19.942;2022-09-09T04:50:38;30.20;;;15.20;;
60919;SDS011;59039;52.108;19.942;2022-09-09T04:55:42;24.20;;;13.50;;
60919;SDS011;59039;52.108;19.942;2022-09-09T04:58:08;24.80;;;14.40;;
60919;SDS011;59039;52.108;19.942;2022-09-09T05:00:36;25.80;;;15.10;;
60919;SDS011;59039;52.108;19.942;2022-09-09T05:03:22;31.00;;;14.20;;
60919;SDS011;59039;52.108;19.942;2022-09-09T05:05:50;28.00;;;13.40;;
60919;SDS011;59039;52.108;19.942;2022-09-09T05:08:15;23.10;;;13.90;;
60919;SDS011;59039;52.108;19.942;2022-09-09T05:11:01;23.60;;;14.60;;
60919;SDS011;59039;52.108;19.942;2022-09-09T05:13:27;27.30;;;15.20;;
60919;SDS011;59039;52.108;19.942;2022-09-09T05:15:52;28.00;;;15.90;;
60919;SDS011;59039;52.108;19.942;2022-09-09T05:18:27;24.70;;;14.80;;
60919;SDS011;59039;52.108;19.942;2022-09-09T05:21:04;22.50;;;13.80;;
60919;SDS011;59039;52.108;19.942;2022-09-09T05:26:16;25.10;;;14.10;;
60919;SDS011;59039;52.108;19.942;2022-09-09T05:28:43;29.10;;;14.70;;
60919;SDS011;59039;52.108;19.942;2022-09-09T05:31:12;26.90;;;15.20;;
60919;SDS011;59039;52.108;19.942;2022-09-09T05:33:39;28.50;;;15.10;;
60919;SDS011;59039;52.108;19.942;2022-09-09T05:36:06;28.60;;;14.60;;
60919;SDS011;59039;52.108;19.942;2022-09-09T05:38:33;30.10;;;14.30;;
60919;SDS011;59039;52.108;19.942;2022-09-09T05:43:36;32.60;;;15.60;;
60919;SDS011;59039;52.108;19.942;2022-09-09T05:46:05;33.40;;;15.70;;
60919;SDS011;59039;52.108;19.942;2022-09-09T05:48:33;30.10;;;15.50;;
60919;SDS011;59039;52.108;19.942;2022-09-09T05:51:00;29.80;;;15.50;;
60919;SDS011;59039;52.108;19.942;2022-09-09T05:56:02;30.20;;;16.20;;
60919;SDS011;59039;52.108;19.942;2022-09-09T05:58:33;28.30;;;15.60;;
60919;SDS011;59039;52.108;19.942;2022-09-09T06:03:50;29.90;;;15.80;;
60919;SDS011;59039;52.108;19.942;2022-09-09T06:06:17;29.40;;;15.60;;
60919;SDS011;59039;52.108;19.942;2022-09-09T06:08:44;36.60;;;17.70;;
60919;SDS011;59039;52.108;19.942;2022-09-09T06:11:14;33.70;;;17.40;;
60919;SDS011;59039;52.108;19.942;2022-09-09T06:13:43;30.40;;;16.00;;
60919;SDS011;59039;52.108;19.942;2022-09-09T06:16:18;27.00;;;16.50;;
60919;SDS011;59039;52.108;19.942;2022-09-09T06:18:45;38.80;;;17.20;;
60919;SDS011;59039;52.108;19.942;2022-09-09T06:21:18;33.40;;;17.20;;
60919;SDS011;59039;52.108;19.942;2022-09-09T06:23:45;37.60;;;18.10;;
60919;SDS011;59039;52.108;19.942;2022-09-09T06:26:41;30.50;;;16.50;;
60919;SDS011;59039;52.108;19.942;2022-09-09T06:29:09;42.40;;;18.50;;
60919;SDS011;59039;52.108;19.942;2022-09-09T06:31:38;39.30;;;16.90;;
60919;SDS011;59039;52.108;19.942;2022-09-09T06:34:04;52.20;;;19.90;;
60919;SDS011;59039;52.108;19.942;2022-09-09T06:36:32;40.30;;;19.60;;
60919;SDS011;59039;52.108;19.942;2022-09-09T06:39:02;39.50;;;18.50;;
60919;SDS011;59039;52.108;19.942;2022-09-09T06:44:24;33.80;;;18.80;;
60919;SDS011;59039;52.108;19.942;2022-09-09T06:47:10;43.10;;;18.40;;
60919;SDS011;59039;52.108;19.942;2022-09-09T06:49:35;37.20;;;18.50;;
60919;SDS011;59039;52.108;19.942;2022-09-09T06:52:09;43.70;;;19.10;;
60919;SDS011;59039;52.108;19.942;2022-09-09T06:54:35;42.30;;;19.10;;
60919;SDS011;59039;52.108;19.942;2022-09-09T06:57:05;45.10;;;21.20;;
60919;SDS011;59039;52.108;19.942;2022-09-09T06:59:30;45.70;;;20.20;;
60919;SDS011;59039;52.108;19.942;2022-09-09T07:04:32;44.80;;;20.70;;
60919;SDS011;59039;52.108;19.942;2022-09-09T07:06:57;45.50;;;21.10;;
60919;SDS011;59039;52.108;19.942;2022-09-09T07:09:23;42.30;;;19.70;;
60919;SDS011;59039;52.108;19.942;2022-09-09T07:11:49;46.00;;;20.50;;
60919;SDS011;59039;52.108;19.942;2022-09-09T07:14:15;47.90;;;21.80;;
60919;SDS011;59039;52.108;19.942;2022-09-09T07:16:41;44.00;;;19.70;;
60919;SDS011;59039;52.108;19.942;2022-09-09T07:19:31;47.00;;;21.70;;
60919;SDS011;59039;52.108;19.942;2022-09-09T07:21:55;53.00;;;20.50;;
60919;SDS011;59039;52.108;19.942;2022-09-09T07:24:23;46.60;;;21.40;;
60919;SDS011;59039;52.108;19.942;2022-09-09T07:26:49;49.30;;;24.00;;
60919;SDS011;59039;52.108;19.942;2022-09-09T07:29:34;58.30;;;23.20;;
60919;SDS011;59039;52.108;19.942;2022-09-09T07:31:59;52.70;;;22.70;;
60919;SDS011;59039;52.108;19.942;2022-09-09T07:34:25;47.60;;;21.40;;
60919;SDS011;59039;52.108;19.942;2022-09-09T07:36:52;51.60;;;23.80;;
60919;SDS011;59039;52.108;19.942;2022-09-09T07:39:18;45.40;;;21.20;;
60919;SDS011;59039;52.108;19.942;2022-09-09T07:41:47;55.50;;;23.00;;
60919;SDS011;59039;52.108;19.942;2022-09-09T07:44:17;47.40;;;23.10;;
60919;SDS011;59039;52.108;19.942;2022-09-09T07:49:20;52.70;;;22.50;;
60919;SDS011;59039;52.108;19.942;2022-09-09T07:54:39;54.30;;;22.90;;
60919;SDS011;59039;52.108;19.942;2022-09-09T07:57:05;61.80;;;24.60;;
60919;SDS011;59039;52.108;19.942;2022-09-09T07:59:50;56.40;;;22.30;;
60919;SDS011;59039;52.108;19.942;2022-09-09T08:02:16;63.80;;;24.60;;
60919;SDS011;59039;52.108;19.942;2022-09-09T08:04:43;57.90;;;25.00;;
60919;SDS011;59039;52.108;19.942;2022-09-09T08:07:09;52.20;;;23.10;;
60919;SDS011;59039;52.108;19.942;2022-09-09T08:09:34;57.50;;;23.70;;
60919;SDS011;59039;52.108;19.942;2022-09-09T08:12:00;59.60;;;23.60;;
60919;SDS011;59039;52.108;19.942;2022-09-09T08:14:28;57.80;;;24.90;;
60919;SDS011;59039;52.108;19.942;2022-09-09T08:19:29;54.80;;;23.30;;
60919;SDS011;59039;52.108;19.942;2022-09-09T08:22:04;57.90;;;23.30;;
60919;SDS011;59039;52.108;19.942;2022-09-09T08:24:30;53.80;;;24.40;;
60919;SDS011;59039;52.108;19.942;2022-09-09T08:26:55;56.00;;;25.00;;
60919;SDS011;59039;52.108;19.942;2022-09-09T08:29:44;54.80;;;25.50;;
60919;SDS011;59039;52.108;19.942;2022-09-09T08:32:09;51.60;;;23.30;;
60919;SDS011;59039;52.108;19.942;2022-09-09T08:34:34;61.00;;;24.70;;
60919;SDS011;59039;52.108;19.942;2022-09-09T08:36:59;56.90;;;24.10;;
60919;SDS011;59039;52.108;19.942;2022-09-09T08:39:25;50.60;;;24.70;;
60919;SDS011;59039;52.108;19.942;2022-09-09T08:42:04;64.20;;;25.30;;
60919;SDS011;59039;52.108;19.942;2022-09-09T08:50:43;62.30;;;25.30;;
60919;SDS011;59039;52.108;19.942;2022-09-09T08:53:28;64.30;;;26.00;;
60919;SDS011;59039;52.108;19.942;2022-09-09T08:56:09;62.20;;;25.60;;
60919;SDS011;59039;52.108;19.942;2022-09-09T09:07:00;65.00;;;28.50;;
60919;SDS011;59039;52.108;19.942;2022-09-09T09:09:38;65.10;;;28.40;;
60919;SDS011;59039;52.108;19.942;2022-09-09T09:14:40;64.50;;;27.40;;
60919;SDS011;59039;52.108;19.942;2022-09-09T09:17:10;65.80;;;27.60;;
60919;SDS011;59039;52.108;19.942;2022-09-09T09:19:42;59.50;;;27.80;;
60919;SDS011;59039;52.108;19.942;2022-09-09T09:30:17;56.50;;;26.10;;
60919;SDS011;59039;52.108;19.942;2022-09-09T09:33:02;52.60;;;25.80;;
60919;SDS011;59039;52.108;19.942;2022-09-09T09:35:45;58.40;;;25.30;;
60919;SDS011;59039;52.108;19.942;2022-09-09T09:38:30;51.60;;;24.90;;
60919;SDS011;59039;52.108;19.942;2022-09-09T09:40:57;50.80;;;24.40;;
60919;SDS011;59039;52.108;19.942;2022-09-09T09:43:27;52.10;;;25.90;;
60919;SDS011;59039;52.108;19.942;2022-09-09T09:45:55;45.10;;;23.70;;
60919;SDS011;59039;52.108;19.942;2022-09-09T09:48:42;52.40;;;24.20;;
60919;SDS011;59039;52.108;19.942;2022-09-09T09:51:08;51.40;;;23.90;;
60919;SDS011;59039;52.108;19.942;2022-09-09T09:53:36;45.90;;;24.10;;
60919;SDS011;59039;52.108;19.942;2022-09-09T09:56:13;46.20;;;23.10;;
60919;SDS011;59039;52.108;19.942;2022-09-09T10:01:47;43.40;;;22.50;;
60919;SDS011;59039;52.108;19.942;2022-09-09T10:04:30;41.90;;;22.80;;
60919;SDS011;59039;52.108;19.942;2022-09-09T10:07:18;45.40;;;23.30;;
60919;SDS011;59039;52.108;19.942;2022-09-09T10:09:55;44.40;;;23.40;;
60919;SDS011;59039;52.108;19.942;2022-09-09T10:15:07;43.10;;;22.20;;
60919;SDS011;59039;52.108;19.942;2022-09-09T10:26:15;37.00;;;20.10;;
60919;SDS011;59039;52.108;19.942;2022-09-09T10:28:58;39.20;;;20.50;;
60919;SDS011;59039;52.108;19.942;2022-09-09T10:31:51;32.80;;;19.40;;
60919;SDS011;59039;52.108;19.942;2022-09-09T10:37:59;41.00;;;20.90;;
60919;SDS011;59039;52.108;19.942;2022-09-09T10:40:19;47.70;;;22.70;;
60919;SDS011;59039;52.108;19.942;2022-09-09T10:42:46;52.60;;;24.60;;
60919;SDS011;59039;52.108;19.942;2022-09-09T10:48:53;45.90;;;23.30;;
60919;SDS011;59039;52.108;19.942;2022-09-09T10:54:34;43.10;;;23.70;;
60919;SDS011;59039;52.108;19.942;2022-09-09T10:57:07;42.90;;;22.90;;
60919;SDS011;59039;52.108;19.942;2022-09-09T10:59:44;39.20;;;22.40;;
60919;SDS011;59039;52.108;19.942;2022-09-09T11:02:19;44.20;;;22.20;;
60919;SDS011;59039;52.108;19.942;2022-09-09T11:04:55;39.50;;;20.70;;
60919;SDS011;59039;52.108;19.942;2022-09-09T11:07:29;33.80;;;19.60;;
60919;SDS011;59039;52.108;19.942;2022-09-09T11:10:02;44.30;;;22.30;;
60919;SDS011;59039;52.108;19.942;2022-09-09T11:12:34;37.10;;;20.50;;
60919;SDS011;59039;52.108;19.942;2022-09-09T11:15:14;32.90;;;17.10;;
60919;SDS011;59039;52.108;19.942;2022-09-09T11:18:11;31.00;;;16.90;;
60919;SDS011;59039;52.108;19.942;2022-09-09T11:20:43;33.20;;;18.20;;
60919;SDS011;59039;52.108;19.942;2022-09-09T11:23:14;31.20;;;17.80;;
60919;SDS011;59039;52.108;19.942;2022-09-09T11:26:05;34.20;;;18.60;;
60919;SDS011;59039;52.108;19.942;2022-09-09T11:28:48;35.00;;;18.50;;
60919;SDS011;59039;52.108;19.942;2022-09-09T11:34:52;25.70;;;15.60;;
60919;SDS011;59039;52.108;19.942;2022-09-09T11:40:31;35.70;;;17.40;;
60919;SDS011;59039;52.108;19.942;2022-09-09T11:46:00;27.70;;;16.10;;
60919;SDS011;59039;52.108;19.942;2022-09-09T11:48:58;28.60;;;17.10;;
60919;SDS011;59039;52.108;19.942;2022-09-09T11:51:29;32.70;;;18.50;;
60919;SDS011;59039;52.108;19.942;2022-09-09T11:56:32;32.60;;;18.00;;
60919;SDS011;59039;52.108;19.942;2022-09-09T12:01:59;30.80;;;16.70;;
60919;SDS011;59039;52.108;19.942;2022-09-09T12:04:49;30.40;;;16.20;;
60919;SDS011;59039;52.108;19.942;2022-09-09T12:10:19;32.00;;;18.60;;
60919;SDS011;59039;52.108;19.942;2022-09-09T12:12:45;31.70;;;17.50;;
60919;SDS011;59039;52.108;19.942;2022-09-09T12:17:57;31.00;;;18.10;;
60919;SDS011;59039;52.108;19.942;2022-09-09T12:20:26;28.50;;;15.50;;
60919;SDS011;59039;52.108;19.942;2022-09-09T12:23:13;27.70;;;15.60;;
60919;SDS011;59039;52.108;19.942;2022-09-09T12:28:52;26.10;;;13.70;;
60919;SDS011;59039;52.108;19.942;2022-09-09T12:31:33;26.90;;;15.30;;
60919;SDS011;59039;52.108;19.942;2022-09-09T12:34:08;25.60;;;15.10;;
60919;SDS011;59039;52.108;19.942;2022-09-09T12:36:36;25.90;;;16.30;;
60919;SDS011;59039;52.108;19.942;2022-09-09T12:41:59;24.00;;;14.40;;
60919;SDS011;59039;52.108;19.942;2022-09-09T12:44:24;28.80;;;16.10;;
60919;SDS011;59039;52.108;19.942;2022-09-09T12:52:30;24.10;;;15.00;;
60919;SDS011;59039;52.108;19.942;2022-09-09T12:54:58;26.10;;;15.00;;
60919;SDS011;59039;52.108;19.942;2022-09-09T12:57:33;24.10;;;15.20;;
60919;SDS011;59039;52.108;19.942;2022-09-09T13:02:54;22.80;;;14.10;;
60919;SDS011;59039;52.108;19.942;2022-09-09T13:05:27;24.40;;;14.00;;
60919;SDS011;59039;52.108;19.942;2022-09-09T13:08:03;26.50;;;15.30;;
60919;SDS011;59039;52.108;19.942;2022-09-09T13:10:35;23.20;;;13.80;;
60919;SDS011;59039;52.108;19.942;2022-09-09T13:13:03;24.40;;;13.10;;
60919;SDS011;59039;52.108;19.942;2022-09-09T13:15:30;23.20;;;13.20;;
60919;SDS011;59039;52.108;19.942;2022-09-09T13:17:57;22.00;;;13.90;;
60919;SDS011;59039;52.108;19.942;2022-09-09T13:20:24;25.90;;;13.90;;
60919;SDS011;59039;52.108;19.942;2022-09-09T13:22:50;22.70;;;13.70;;
60919;SDS011;59039;52.108;19.942;2022-09-09T13:28:02;23.10;;;13.80;;
60919;SDS011;59039;52.108;19.942;2022-09-09T13:30:31;21.10;;;12.70;;
60919;SDS011;59039;52.108;19.942;2022-09-09T13:35:26;23.00;;;13.60;;
60919;SDS011;59039;52.108;19.942;2022-09-09T13:37:52;21.70;;;12.70;;
60919;SDS011;59039;52.108;19.942;2022-09-09T13:40:21;24.20;;;13.20;;
60919;SDS011;59039;52.108;19.942;2022-09-09T13:42:50;21.70;;;12.60;;
60919;SDS011;59039;52.108;19.942;2022-09-09T13:45:21;20.20;;;13.70;;
60919;SDS011;59039;52.108;19.942;2022-09-09T13:57:24;22.50;;;13.00;;
60919;SDS011;59039;52.108;19.942;2022-09-09T13:59:50;23.70;;;15.10;;
60919;SDS011;59039;52.108;19.942;2022-09-09T14:02:16;26.70;;;14.30;;
60919;SDS011;59039;52.108;19.942;2022-09-09T14:04:44;21.80;;;13.60;;
60919;SDS011;59039;52.108;19.942;2022-09-09T14:07:13;24.20;;;14.60;;
60919;SDS011;59039;52.108;19.942;2022-09-09T14:09:40;23.30;;;13.80;;
60919;SDS011;59039;52.108;19.942;2022-09-09T14:12:12;22.00;;;13.40;;
60919;SDS011;59039;52.108;19.942;2022-09-09T14:14:38;28.60;;;15.30;;
60919;SDS011;59039;52.108;19.942;2022-09-09T14:17:06;21.60;;;13.00;;
60919;SDS011;59039;52.108;19.942;2022-09-09T14:19:32;24.10;;;14.10;;
60919;SDS011;59039;52.108;19.942;2022-09-09T14:21:57;31.30;;;18.60;;
60919;SDS011;59039;52.108;19.942;2022-09-09T14:24:23;24.20;;;14.40;;
60919;SDS011;59039;52.108;19.942;2022-09-09T14:29:27;25.80;;;16.50;;
60919;SDS011;59039;52.108;19.942;2022-09-09T14:31:57;21.10;;;13.10;;
60919;SDS011;59039;52.108;19.942;2022-09-09T14:34:23;23.50;;;12.50;;
60919;SDS011;59039;52.108;19.942;2022-09-09T14:36:48;22.60;;;13.90;;
60919;SDS011;59039;52.108;19.942;2022-09-09T14:39:14;23.40;;;13.10;;
60919;SDS011;59039;52.108;19.942;2022-09-09T14:41:39;20.00;;;12.90;;
60919;SDS011;59039;52.108;19.942;2022-09-09T14:44:04;20.00;;;13.70;;
60919;SDS011;59039;52.108;19.942;2022-09-09T14:46:30;23.50;;;13.20;;
60919;SDS011;59039;52.108;19.942;2022-09-09T14:48:55;23.00;;;13.70;;
60919;SDS011;59039;52.108;19.942;2022-09-09T14:51:22;23.20;;;13.30;;
60919;SDS011;59039;52.108;19.942;2022-09-09T14:53:51;26.10;;;13.90;;
60919;SDS011;59039;52.108;19.942;2022-09-09T14:56:18;23.00;;;13.20;;
60919;SDS011;59039;52.108;19.942;2022-09-09T14:58:45;21.90;;;13.10;;
60919;SDS011;59039;52.108;19.942;2022-09-09T15:01:11;22.10;;;13.80;;
60919;SDS011;59039;52.108;19.942;2022-09-09T15:03:39;22.60;;;13.70;;
60919;SDS011;59039;52.108;19.942;2022-09-09T15:06:06;22.20;;;12.80;;
60919;SDS011;59039;52.108;19.942;2022-09-09T15:08:37;21.90;;;13.20;;
60919;SDS011;59039;52.108;19.942;2022-09-09T15:11:04;20.90;;;13.30;;
60919;SDS011;59039;52.108;19.942;2022-09-09T15:13:31;21.70;;;12.70;;
60919;SDS011;59039;52.108;19.942;2022-09-09T15:16:02;19.50;;;12.30;;
60919;SDS011;59039;52.108;19.942;2022-09-09T15:18:38;19.70;;;12.70;;
60919;SDS011;59039;52.108;19.942;2022-09-09T15:21:04;20.20;;;11.90;;
60919;SDS011;59039;52.108;19.942;2022-09-09T15:23:33;22.80;;;13.00;;
60919;SDS011;59039;52.108;19.942;2022-09-09T15:26:01;18.40;;;11.20;;
60919;SDS011;59039;52.108;19.942;2022-09-09T15:28:27;20.60;;;12.50;;
60919;SDS011;59039;52.108;19.942;2022-09-09T15:30:53;21.70;;;13.00;;
60919;SDS011;59039;52.108;19.942;2022-09-09T15:33:22;17.80;;;11.20;;
60919;SDS011;59039;52.108;19.942;2022-09-09T15:35:47;18.50;;;11.80;;
60919;SDS011;59039;52.108;19.942;2022-09-09T15:38:13;18.00;;;11.70;;
60919;SDS011;59039;52.108;19.942;2022-09-09T15:40:39;20.80;;;12.50;;
60919;SDS011;59039;52.108;19.942;2022-09-09T15:43:05;19.90;;;12.90;;
60919;SDS011;59039;52.108;19.942;2022-09-09T15:45:31;19.90;;;11.80;;
60919;SDS011;59039;52.108;19.942;2022-09-09T15:47:57;17.90;;;11.10;;
60919;SDS011;59039;52.108;19.942;2022-09-09T15:50:26;19.40;;;11.60;;
60919;SDS011;59039;52.108;19.942;2022-09-09T15:52:52;19.90;;;12.00;;
60919;SDS011;59039;52.108;19.942;2022-09-09T15:55:17;20.80;;;11.40;;
60919;SDS011;59039;52.108;19.942;2022-09-09T15:57:42;19.30;;;12.20;;
60919;SDS011;59039;52.108;19.942;2022-09-09T16:00:14;21.10;;;12.40;;
60919;SDS011;59039;52.108;19.942;2022-09-09T16:02:39;23.80;;;13.70;;
60919;SDS011;59039;52.108;19.942;2022-09-09T16:05:04;20.30;;;12.80;;
60919;SDS011;59039;52.108;19.942;2022-09-09T16:07:33;18.80;;;11.70;;
60919;SDS011;59039;52.108;19.942;2022-09-09T16:10:01;20.00;;;11.60;;
60919;SDS011;59039;52.108;19.942;2022-09-09T16:12:27;20.70;;;12.00;;
60919;SDS011;59039;52.108;19.942;2022-09-09T16:14:52;20.80;;;12.50;;
60919;SDS011;59039;52.108;19.942;2022-09-09T16:17:18;20.30;;;12.20;;
60919;SDS011;59039;52.108;19.942;2022-09-09T16:19:43;20.80;;;12.50;;
60919;SDS011;59039;52.108;19.942;2022-09-09T16:22:11;22.50;;;12.60;;
60919;SDS011;59039;52.108;19.942;2022-09-09T16:24:36;19.10;;;11.80;;
60919;SDS011;59039;52.108;19.942;2022-09-09T16:27:01;20.50;;;12.40;;
60919;SDS011;59039;52.108;19.942;2022-09-09T16:29:34;23.30;;;12.80;;
60919;SDS011;59039;52.108;19.942;2022-09-09T16:31:59;20.70;;;12.40;;
60919;SDS011;59039;52.108;19.942;2022-09-09T16:34:25;19.70;;;11.40;;
60919;SDS011;59039;52.108;19.942;2022-09-09T16:36:50;19.40;;;12.00;;
60919;SDS011;59039;52.108;19.942;2022-09-09T16:39:17;23.90;;;14.20;;
60919;SDS011;59039;52.108;19.942;2022-09-09T16:41:44;25.60;;;13.30;;
60919;SDS011;59039;52.108;19.942;2022-09-09T16:44:11;25.30;;;14.80;;
60919;SDS011;59039;52.108;19.942;2022-09-09T16:46:38;24.40;;;14.60;;
60919;SDS011;59039;52.108;19.942;2022-09-09T16:49:06;24.40;;;13.20;;
60919;SDS011;59039;52.108;19.942;2022-09-09T16:51:35;21.90;;;13.00;;
60919;SDS011;59039;52.108;19.942;2022-09-09T16:54:03;25.60;;;13.10;;
60919;SDS011;59039;52.108;19.942;2022-09-09T16:56:31;26.90;;;14.80;;
60919;SDS011;59039;52.108;19.942;2022-09-09T16:58:59;26.20;;;13.90;;
60919;SDS011;59039;52.108;19.942;2022-09-09T17:01:32;23.00;;;13.30;;
60919;SDS011;59039;52.108;19.942;2022-09-09T17:04:00;30.70;;;16.10;;
60919;SDS011;59039;52.108;19.942;2022-09-09T17:06:27;28.30;;;15.20;;
60919;SDS011;59039;52.108;19.942;2022-09-09T17:08:55;26.40;;;15.40;;
60919;SDS011;59039;52.108;19.942;2022-09-09T17:11:24;31.90;;;16.00;;
60919;SDS011;59039;52.108;19.942;2022-09-09T17:13:54;31.70;;;17.00;;
60919;SDS011;59039;52.108;19.942;2022-09-09T17:16:21;30.30;;;16.50;;
60919;SDS011;59039;52.108;19.942;2022-09-09T17:18:49;29.30;;;16.30;;
60919;SDS011;59039;52.108;19.942;2022-09-09T17:21:17;27.70;;;15.60;;
60919;SDS011;59039;52.108;19.942;2022-09-09T17:23:43;28.30;;;16.70;;
60919;SDS011;59039;52.108;19.942;2022-09-09T17:26:10;47.50;;;24.20;;
60919;SDS011;59039;52.108;19.942;2022-09-09T17:28:48;75.30;;;44.00;;
60919;SDS011;59039;52.108;19.942;2022-09-09T17:31:15;76.40;;;44.30;;
60919;SDS011;59039;52.108;19.942;2022-09-09T17:33:42;61.30;;;30.70;;
60919;SDS011;59039;52.108;19.942;2022-09-09T17:36:18;57.90;;;31.30;;
60919;SDS011;59039;52.108;19.942;2022-09-09T17:38:51;49.30;;;27.00;;
60919;SDS011;59039;52.108;19.942;2022-09-09T17:44:04;81.70;;;33.90;;